Lucia, California
Current Conditions -  °F | °C
As of 12:54 AM on Monday 20 Oct 2014 (Local Time) from KMRY Reporting Station
Overcast Overcast  
Wind Chill: 60°   Ceiling: 900
Heat Index: 60°   Visibility: 10mi
Dew Point: 55°   Wind: 3mph
Humidity: 83%   Direction: 90°E
Pressure: 29.94"   Gusts: NA
Location:  36.2518°N, 121.704°W
Report Text: KMRY 200754Z AUTO 09003KT 10SM OVC009 16/13 A2994 RMK AO2 CIG 008V012 SLP148 T01560128 402110122
Loading
Personal Weather Stations






























Interactive Weather Map
Tropical Storm Tracking
New forecast layout! Learn more

10-Day Weather Forecast

Advertisements
Track Severe Weather on mobile